Bandar Lengeh, Bandar Lengeh Airport (OIBL)

NameBandar Lengeh Airport
CityBandar Lengeh
CountryIran (Islamic Republic of)
ICAOOIBL
IATABDH
Altitude20 m
CoordinatesGoogle Map
Live Air TrafficLiveATC.net
METAROIBL 171600Z 00000KT 8000 NSC 29/16 Q1011
2018-10-17 16:00:00 Wind: North (0°) 0 m/s - Visibility: 8000 m - Temperature: 29 °C - Dew point: 16 °C - Humidity: 45.3% - Pressure: 1011 hPa

Sorry, no flights used the airport in this database.